Search for airport 
image banner adimage banner adimage banner ad
image banner ad

CN93 - Sierra Vista Rgnl Medical Center

Located in San Luis Obispo, United States

ICAO - CN93, IATA -

Data provided by Airmate  

General information

Coordinates: N35°17'38" W120°39'58"
Elevation is 235 feet MSL.
 
View others Airports in California

Operational data

Special qualification required
Current time UTC:
Current local time:
Weather at : KSBP - San Luis County Rgnl ( 7 km )
METAR: KSBP 211356Z 12004KT 7SM OVC006 14/12 A2998 RMK AO2 SLP152 T01390117
TAF: KSBP 211124Z 2112/2212 VRB03KT P6SM OVC006 FM212000 25008KT P6SM SKC FM212300 30010KT P6SM SKC FM220500 VRB03KT P6SM BKN012 FM220800 VRB03KT P6SM OVC008
View NOTAMs / SUP AIP / TFR affecting this airport [VIEW]
Communications frequencies: [VIEW]

Runways:

Airport contact information

Address: San Luis Obispo United States

Satellite view of CN93